Time;durP1;ratioP1;P1;durP2;ratioP2;P2;SDS_P1;SDS_P2;PMS_P1;PMS_P2;Temp;Humidity;BMP_temperature;BMP_pressure;BME280_temperature;BME280_humidity;BME280_pressure;Samples;Min_cycle;Max_cycle;Signal;HPM_P1;HPM_P2
2022/04/17 00:00:17;;;;;;;;;6.50;5.00;;;;;14.22;44.51;102276.13;5103054;27;45330;-65
2022/04/17 00:02:43;;;;;;;;;6.25;6.25;;;;;14.14;44.72;102272.78;5102853;27;45301;-65
2022/04/17 00:05:09;;;;;;;;;6.00;4.50;;;;;14.16;44.73;102277.97;5103295;27;45455;-65
2022/04/17 00:07:35;;;;;;;;;5.25;4.25;;;;;14.12;44.69;102266.72;5101371;27;45419;-65
2022/04/17 00:10:01;;;;;;;;;7.50;6.00;;;;;14.11;44.68;102274.59;5102584;27;46295;-65
2022/04/17 00:12:33;;;;;;;;;6.25;6.25;;;;;14.05;44.53;102275.56;5102740;27;45259;-65
2022/04/17 00:15:06;;;;;;;;;10.25;7.00;;;;;14.04;44.48;102270.38;5101198;27;45350;-65
2022/04/17 00:17:32;;;;;;;;;7.75;7.00;;;;;14.00;44.61;102261.69;5101430;27;45383;-65
2022/04/17 00:19:58;;;;;;;;;9.75;6.50;;;;;13.96;44.76;102258.28;5101786;27;45645;-65
2022/04/17 00:22:24;;;;;;;;;9.25;5.50;;;;;13.92;44.44;102255.75;5098835;27;45495;-65
2022/04/17 00:24:49;;;;;;;;;6.75;5.00;;;;;13.89;44.78;102256.66;5100294;27;45537;-65
2022/04/17 00:27:15;;;;;;;;;7.25;6.50;;;;;13.88;44.96;102254.94;5096164;27;45596;-65
2022/04/17 00:29:41;;;;;;;;;5.75;5.50;;;;;13.83;44.92;102253.31;5093248;27;45490;-65
2022/04/17 00:32:07;;;;;;;;;9.00;7.25;;;;;13.80;45.06;102255.94;5112396;27;45768;-65
2022/04/17 00:34:33;;;;;;;;;8.75;7.00;;;;;13.72;45.00;102250.84;5092898;27;45394;-64
2022/04/17 00:36:59;;;;;;;;;9.00;8.50;;;;;13.68;44.64;102246.56;5101737;27;45357;-65
2022/04/17 00:39:27;;;;;;;;;11.50;9.50;;;;;13.64;45.00;102250.13;5102131;27;46180;-65
2022/04/17 00:41:55;;;;;;;;;8.00;8.00;;;;;13.59;45.36;102246.69;5116074;27;45826;-65
2022/04/17 00:44:21;;;;;;;;;11.50;7.00;;;;;13.54;45.03;102253.75;5102276;27;45513;-64
2022/04/17 00:46:46;;;;;;;;;9.25;6.50;;;;;13.48;44.99;102241.66;5105146;27;45432;-64
2022/04/17 00:49:12;;;;;;;;;7.50;6.25;;;;;13.43;45.11;102247.84;5110425;27;45356;-64
2022/04/17 00:51:38;;;;;;;;;10.25;8.25;;;;;13.43;45.22;102245.22;5099705;27;45408;-64
2022/04/17 00:54:06;;;;;;;;;8.00;5.25;;;;;13.38;45.65;102248.75;5099854;27;45610;-64
2022/04/17 00:56:32;;;;;;;;;10.75;8.00;;;;;13.33;45.53;102245.34;5095377;27;45736;-64
2022/04/17 00:58:57;;;;;;;;;9.00;8.00;;;;;13.26;45.29;102242.88;5099640;27;46812;-64
2022/04/17 01:01:23;;;;;;;;;9.75;9.75;;;;;13.27;45.37;102245.47;5099586;27;45464;-64
2022/04/17 01:03:52;;;;;;;;;9.50;6.75;;;;;13.25;45.59;102243.75;5099559;27;45543;-64
2022/04/17 01:06:17;;;;;;;;;8.25;8.00;;;;;13.21;45.68;102247.28;5099807;27;45422;-64
2022/04/17 01:08:43;;;;;;;;;10.50;7.00;;;;;13.16;45.50;102238.63;5099798;27;46159;-64
2022/04/17 01:11:09;;;;;;;;;18.00;12.50;;;;;13.13;45.58;102236.91;5101848;27;45299;-66
2022/04/17 01:13:38;;;;;;;;;11.50;11.50;;;;;13.09;45.55;102230.88;5101952;27;45335;-66
2022/04/17 01:16:05;;;;;;;;;10.75;8.00;;;;;13.08;45.48;102238.75;5101275;27;45668;-66
2022/04/17 01:18:50;;;;;;;;;8.25;6.25;;;;;13.06;45.46;102236.16;5101130;27;47188;-62
2022/04/17 01:21:19;;;;;;;;;9.00;8.00;;;;;13.03;45.74;102228.38;5090834;27;45826;-62
2022/04/17 01:29:14;;;;;;;;;7.00;5.00;;;;;12.93;45.73;102213.72;5089651;27;45681;-63
2022/04/17 01:31:39;;;;;;;;;8.50;5.00;;;;;12.91;45.89;102212.88;5101626;27;45202;-62
2022/04/17 01:34:04;;;;;;;;;6.25;5.50;;;;;12.91;45.84;102214.63;5101757;27;45167;-62
2022/04/17 01:36:31;;;;;;;;;6.00;5.00;;;;;12.85;45.94;102215.56;5101364;27;45356;-63
2022/04/17 01:38:56;;;;;;;;;4.75;4.75;;;;;12.83;45.80;102211.25;5090187;27;45534;-62
2022/04/17 01:41:21;;;;;;;;;7.75;6.00;;;;;12.79;45.89;102206.06;5080642;27;45268;-62
2022/04/17 01:43:47;;;;;;;;;5.00;4.75;;;;;12.73;46.53;102206.16;5081025;27;45208;-62
2022/04/17 01:46:12;;;;;;;;;7.25;5.75;;;;;12.68;46.29;102207.09;5093698;27;45772;-62
2022/04/17 01:48:37;;;;;;;;;5.75;4.25;;;;;12.63;46.31;102201.06;5100201;27;45172;-62
2022/04/17 01:51:03;;;;;;;;;5.00;5.00;;;;;12.56;46.52;102204.63;5113589;27;45291;-62
2022/04/17 01:53:29;;;;;;;;;5.75;4.50;;;;;12.50;46.29;102205.56;5101619;27;45365;-62
2022/04/17 01:55:54;;;;;;;;;6.00;4.00;;;;;12.48;46.24;102209.94;5101076;27;45393;-62
2022/04/17 01:58:19;;;;;;;;;8.25;5.50;;;;;12.44;46.47;102209.13;5099779;27;47242;-62
2022/04/17 02:00:44;;;;;;;;;5.25;4.50;;;;;12.41;46.27;102209.16;5101156;27;45415;-62
2022/04/17 02:03:10;;;;;;;;;6.25;4.25;;;;;12.41;46.03;102216.97;5101794;27;45320;-62
2022/04/17 02:05:35;;;;;;;;;4.75;4.00;;;;;12.36;46.35;102197.03;5101092;27;45400;-62
2022/04/17 02:08:00;;;;;;;;;5.00;5.00;;;;;12.35;46.71;102203.13;5101209;27;45337;-63
2022/04/17 02:10:26;;;;;;;;;5.25;5.00;;;;;12.32;46.47;102204.03;5100707;27;45297;-63
2022/04/17 02:12:51;;;;;;;;;10.00;6.25;;;;;12.29;46.46;102198.88;5101336;27;45283;-63
2022/04/17 02:15:19;;;;;;;;;8.00;8.00;;;;;12.27;46.46;102198.03;5098778;27;45638;-63
2022/04/17 02:17:44;;;;;;;;;7.75;5.75;;;;;12.24;46.10;102200.66;5093286;27;45235;-63
2022/04/17 02:20:13;;;;;;;;;11.50;9.00;;;;;12.22;46.67;102196.34;5094735;27;45266;-63
2022/04/17 02:22:39;;;;;;;;;10.50;9.00;;;;;12.13;46.60;102190.34;5101040;27;45482;-63
2022/04/17 02:25:05;;;;;;;;;8.50;7.50;;;;;12.14;46.52;102188.59;5100586;27;45542;-62
2022/04/17 02:27:31;;;;;;;;;5.50;5.50;;;;;12.12;46.57;102185.16;5094756;27;45984;-63
2022/04/17 02:29:56;;;;;;;;;8.00;8.00;;;;;12.11;46.63;102188.63;5095820;27;45409;-63
2022/04/17 02:32:21;;;;;;;;;8.00;6.00;;;;;12.10;46.70;102184.31;5100653;27;45396;-63
2022/04/17 02:34:47;;;;;;;;;6.25;6.00;;;;;12.09;46.64;102180.84;5100798;27;45511;-63
2022/04/17 02:37:13;;;;;;;;;6.75;4.25;;;;;12.08;46.67;102175.66;5098944;27;46714;-63
2022/04/17 02:39:38;;;;;;;;;9.50;5.50;;;;;12.06;46.71;102178.28;5100496;27;45469;-62
2022/04/17 02:42:03;;;;;;;;;7.00;7.00;;;;;12.05;47.01;102178.28;5090316;27;45440;-62
2022/04/17 02:44:29;;;;;;;;;4.50;4.00;;;;;12.02;46.89;102173.13;5100344;27;45445;-62
2022/04/17 02:49:38;;;;;;;;;5.00;5.00;;;;;11.93;46.76;102165.38;5100448;27;45897;-63
2022/04/17 02:52:04;;;;;;;;;8.00;5.00;;;;;11.91;46.72;102172.34;5101029;27;45266;-63
2022/04/17 02:54:30;;;;;;;;;3.00;3.00;;;;;11.85;46.97;102163.72;5100117;27;45250;-63
2022/04/17 02:56:55;;;;;;;;;4.50;4.50;;;;;11.84;46.76;102166.34;5100367;27;45288;-62
2022/04/17 02:59:20;;;;;;;;;7.50;4.25;;;;;11.79;46.95;102163.75;5100319;27;45439;-63
2022/04/17 03:07:14;;;;;;;;;8.00;4.50;;;;;11.73;47.13;102155.97;5099309;27;45249;-63
2022/04/17 03:09:39;;;;;;;;;8.50;5.50;;;;;11.71;46.53;102154.28;5106948;27;45293;-62
2022/04/17 03:12:05;;;;;;;;;4.00;3.75;;;;;11.68;46.94;102151.69;5099713;27;45495;-62
2022/04/17 03:14:30;;;;;;;;;4.50;4.50;;;;;11.65;46.93;102147.38;5100487;27;45239;-62
2022/04/17 03:16:56;;;;;;;;;6.00;5.00;;;;;11.65;46.98;102150.00;5100112;27;45228;-61
2022/04/17 03:19:21;;;;;;;;;4.00;4.00;;;;;11.62;47.05;102160.44;5100297;27;45270;-61
2022/04/17 03:21:46;;;;;;;;;5.25;5.25;;;;;11.61;46.76;102163.91;5100222;27;45241;-62
2022/04/17 03:24:12;;;;;;;;;4.00;4.00;;;;;11.58;46.95;102158.72;5100088;27;45418;-62
2022/04/17 03:26:41;;;;;;;;;4.75;3.75;;;;;11.55;47.06;102157.00;5099914;27;45591;-62
2022/04/17 03:29:06;;;;;;;;;3.00;3.00;;;;;11.54;46.97;102160.50;5088399;27;45315;-62
2022/04/17 03:31:31;;;;;;;;;7.75;7.00;;;;;11.52;47.31;102158.78;5100485;27;45389;-62
2022/04/17 03:33:57;;;;;;;;;8.25;7.00;;;;;11.48;47.00;102155.34;5103393;27;45362;-62
2022/04/17 03:36:22;;;;;;;;;10.25;7.25;;;;;11.47;47.15;102147.56;5103219;27;45550;-62
2022/04/17 03:38:47;;;;;;;;;9.50;7.25;;;;;11.44;47.08;102148.44;5103362;27;45303;-62
2022/04/17 03:41:13;;;;;;;;;2.75;2.00;;;;;11.43;47.17;102151.06;5103491;27;45236;-62
2022/04/17 03:43:39;;;;;;;;;9.75;7.25;;;;;11.39;47.06;102152.81;5103310;27;45289;-62
2022/04/17 03:46:04;;;;;;;;;6.00;4.50;;;;;11.36;46.61;102141.56;5103297;27;45248;-62
2022/04/17 03:48:30;;;;;;;;;10.25;7.75;;;;;11.33;47.32;102133.78;5103286;27;45256;-62
2022/04/17 03:50:56;;;;;;;;;4.00;4.00;;;;;11.31;46.96;102152.00;5103438;27;45224;-62
2022/04/17 03:53:21;;;;;;;;;6.50;6.50;;;;;11.26;47.19;102141.66;5117080;27;45296;-62
2022/04/17 03:55:47;;;;;;;;;6.75;4.00;;;;;11.22;46.97;102134.75;5102995;27;46429;-62
2022/04/17 03:58:12;;;;;;;;;6.50;5.25;;;;;11.17;47.21;102133.91;5102979;27;45230;-62
2022/04/17 04:00:37;;;;;;;;;6.25;5.00;;;;;11.17;46.98;102139.09;5103438;27;45281;-62
2022/04/17 04:03:03;;;;;;;;;8.25;7.00;;;;;11.13;47.32;102140.00;5103177;27;45188;-62
2022/04/17 04:05:29;;;;;;;;;8.00;4.00;;;;;11.12;46.92;102134.81;5103013;27;45441;-62
2022/04/17 04:07:54;;;;;;;;;8.25;6.75;;;;;11.08;46.85;102136.56;5116410;27;45259;-62
2022/04/17 04:10:19;;;;;;;;;4.00;4.00;;;;;11.03;46.84;102127.94;5101748;27;45310;-62
2022/04/17 04:12:45;;;;;;;;;6.50;5.50;;;;;11.00;46.91;102135.75;5101354;27;45349;-62
2022/04/17 04:15:10;;;;;;;;;8.50;7.00;;;;;10.94;46.80;102125.41;5102702;27;46787;-63
2022/04/17 04:17:36;;;;;;;;;7.00;7.00;;;;;10.94;47.21;102138.41;5102816;27;45359;-62
2022/04/17 04:20:05;;;;;;;;;8.75;7.50;;;;;10.92;46.96;102130.63;5103227;27;45352;-63
2022/04/17 04:22:30;;;;;;;;;7.25;7.00;;;;;10.90;47.41;102128.91;5102817;27;45169;-62
2022/04/17 04:24:56;;;;;;;;;7.50;6.25;;;;;10.87;47.32;102128.91;5102545;27;46191;-62
2022/04/17 04:30:05;;;;;;;;;7.25;7.00;;;;;10.82;47.08;102121.16;5103208;27;45361;-62
2022/04/17 04:32:30;;;;;;;;;8.25;8.25;;;;;10.80;47.24;102129.81;5115997;27;45452;-62
2022/04/17 04:35:00;;;;;;;;;7.00;5.50;;;;;10.77;47.04;102128.09;5102156;27;46147;-62
2022/04/17 04:37:25;;;;;;;;;7.75;6.00;;;;;10.71;47.41;102130.75;5090317;27;45325;-62
2022/04/17 04:39:51;;;;;;;;;7.75;6.25;;;;;10.67;47.40;102129.03;5102240;27;45357;-62
2022/04/17 04:42:17;;;;;;;;;4.00;3.00;;;;;10.62;46.71;102120.41;5102595;27;45316;-62
2022/04/17 04:44:42;;;;;;;;;7.00;7.00;;;;;10.58;47.07;102131.69;5101116;27;46372;-63
2022/04/17 04:47:07;;;;;;;;;8.75;7.25;;;;;10.54;47.37;102130.84;5102692;27;45333;-62
2022/04/17 04:49:33;;;;;;;;;5.75;5.75;;;;;10.50;46.88;102118.72;5102481;27;45344;-63
2022/04/17 04:52:03;;;;;;;;;7.00;4.25;;;;;10.55;46.68;102136.91;5102551;27;45398;-62
2022/04/17 04:54:29;;;;;;;;;13.50;8.50;;;;;10.49;46.88;102127.41;5101773;27;46329;-60
2022/04/17 04:56:54;;;;;;;;;11.25;7.00;;;;;10.46;47.37;102124.81;5102359;27;45358;-60
2022/04/17 04:59:21;;;;;;;;;6.50;6.00;;;;;10.46;47.61;102127.41;5102240;27;45253;-61
2022/04/17 05:01:50;;;;;;;;;7.00;6.00;;;;;10.43;46.83;102131.78;5102565;27;45276;-61
2022/04/17 05:04:19;;;;;;;;;8.25;6.00;;;;;10.38;47.12;102131.78;5101978;27;46405;-61
2022/04/17 05:06:45;;;;;;;;;6.00;6.00;;;;;10.39;47.26;102141.28;5102313;27;45494;-61
2022/04/17 05:09:10;;;;;;;;;5.50;5.50;;;;;10.38;46.95;102146.50;5100298;27;45343;-61
2022/04/17 05:11:37;;;;;;;;;9.75;8.00;;;;;10.37;47.20;102137.84;5102108;27;45345;-61
2022/04/17 05:14:04;;;;;;;;;7.50;7.00;;;;;10.38;47.07;102143.91;5101557;27;46571;-62
2022/04/17 05:16:29;;;;;;;;;8.00;6.75;;;;;10.38;46.89;102139.56;5102104;27;45746;-62
2022/04/17 05:19:19;;;;;;;;;5.00;5.00;;;;;10.40;47.10;102145.63;5093319;27;45258;-61
2022/04/17 05:21:40;;;;;;;;;9.00;7.00;;;;;10.41;47.21;102147.38;5093501;27;45353;-62
2022/04/17 05:24:06;;;;;;;;;6.50;6.50;;;;;10.42;46.99;102141.31;5108451;27;46135;-61
2022/04/17 05:26:31;;;;;;;;;9.50;9.50;;;;;10.45;46.86;102153.41;5108715;27;45337;-61
2022/04/17 05:28:56;;;;;;;;;8.00;8.00;;;;;10.46;46.69;102152.53;5090266;27;45225;-62
2022/04/17 05:31:22;;;;;;;;;5.00;4.00;;;;;10.47;46.88;102155.13;5101875;27;46566;-62
2022/04/17 05:33:47;;;;;;;;;7.75;7.00;;;;;10.49;47.03;102156.00;5101478;27;46228;-63
2022/04/17 05:36:12;;;;;;;;;8.25;7.00;;;;;10.51;47.36;102153.38;5101382;27;45400;-62
2022/04/17 05:38:38;;;;;;;;;8.25;6.25;;;;;10.48;46.66;102149.06;5101646;27;45314;-62
2022/04/17 05:41:03;;;;;;;;;8.00;8.00;;;;;10.55;46.34;102149.88;5101622;27;45179;-62
2022/04/17 05:43:28;;;;;;;;;8.00;6.00;;;;;10.59;46.69;102154.19;5101278;27;45373;-62
2022/04/17 05:45:57;;;;;;;;;8.00;6.75;;;;;10.61;46.67;102148.16;5101474;27;45275;-62
2022/04/17 05:48:22;;;;;;;;;8.00;5.50;;;;;10.63;45.92;102149.00;5101369;27;45251;-62
2022/04/17 05:50:48;;;;;;;;;10.25;7.00;;;;;10.69;46.09;102152.44;5101472;27;45407;-62
2022/04/17 05:53:14;;;;;;;;;8.25;8.25;;;;;10.71;45.80;102148.09;5101001;27;46173;-62
2022/04/17 05:55:40;;;;;;;;;8.00;8.00;;;;;10.76;45.85;102151.50;5100813;27;45281;-62
2022/04/17 05:58:05;;;;;;;;;7.25;6.00;;;;;10.76;45.76;102144.56;5114864;27;45287;-62
2022/04/17 06:00:30;;;;;;;;;6.75;4.75;;;;;10.79;45.26;102154.09;5101185;27;45433;-62
2022/04/17 06:02:56;;;;;;;;;6.50;4.75;;;;;10.86;45.40;102150.59;5100930;27;46291;-62
2022/04/17 06:05:21;;;;;;;;;6.00;4.00;;;;;10.90;44.97;102152.31;5101212;27;45271;-61
2022/04/17 06:07:47;;;;;;;;;5.75;5.50;;;;;10.93;45.11;102153.16;5100855;27;45405;-61
2022/04/17 06:10:14;;;;;;;;;8.00;7.00;;;;;10.98;45.00;102153.97;5100957;27;45352;-61
2022/04/17 06:12:40;;;;;;;;;5.00;3.50;;;;;11.03;44.64;102156.56;5114519;27;45366;-61
2022/04/17 06:15:09;;;;;;;;;8.50;8.50;;;;;11.09;44.98;102160.84;5101104;27;45331;-61
2022/04/17 06:17:39;;;;;;;;;10.00;6.00;;;;;11.16;44.81;102168.59;5100909;27;45245;-61
2022/04/17 06:20:06;;;;;;;;;13.75;8.00;;;;;11.18;44.56;102158.19;5101099;27;45347;-61
2022/04/17 06:22:35;;;;;;;;;15.75;15.25;;;;;11.24;44.82;102164.22;5100828;27;46260;-61
2022/04/17 06:25:12;;;;;;;;;7.00;5.25;;;;;11.32;44.00;102158.09;5100398;27;45807;-62
2022/04/17 06:27:47;;;;;;;;;7.00;7.00;;;;;11.35;43.95;102163.25;5093786;27;45297;-61
2022/04/17 06:30:15;;;;;;;;;7.75;6.00;;;;;11.37;43.19;102151.09;5097183;27;45316;-61
2022/04/17 06:32:41;;;;;;;;;6.50;4.00;;;;;11.39;43.13;102154.53;5100612;27;46181;-61
2022/04/17 06:35:08;;;;;;;;;8.50;4.75;;;;;11.44;43.23;102158.84;5100196;27;46005;-61
2022/04/17 06:37:49;;;;;;;;;6.25;6.25;;;;;11.49;43.34;102157.06;5101023;27;45285;-60
2022/04/17 06:40:28;;;;;;;;;9.00;7.00;;;;;11.53;43.01;102156.16;5100211;27;45374;-61
2022/04/17 06:42:58;;;;;;;;;9.00;7.00;;;;;11.59;43.11;102157.84;5096122;27;47487;-60
2022/04/17 06:45:25;;;;;;;;;8.00;7.25;;;;;11.65;43.16;102155.19;5098095;27;45226;-60
2022/04/17 06:47:50;;;;;;;;;10.00;8.75;;;;;11.73;42.71;102152.50;5100657;27;45421;-60
2022/04/17 06:50:18;;;;;;;;;6.75;5.50;;;;;11.80;42.31;102142.03;5100635;27;45539;-61
2022/04/17 06:52:44;;;;;;;;;10.25;6.75;;;;;11.88;42.30;102142.84;5100188;27;45439;-61
2022/04/17 06:55:11;;;;;;;;;7.00;3.00;;;;;11.93;42.45;102147.13;5100462;27;45274;-62
2022/04/17 06:57:39;;;;;;;;;9.00;7.00;;;;;11.93;42.31;102144.53;5100374;27;45179;-62
2022/04/17 07:00:10;;;;;;;;;6.00;6.00;;;;;11.99;42.49;102141.84;5100536;27;45333;-62
2022/04/17 07:02:36;;;;;;;;;14.75;9.25;;;;;12.05;41.86;102142.66;5099569;27;46152;-61
2022/04/17 07:05:02;;;;;;;;;5.50;4.00;;;;;12.09;41.77;102140.88;5100307;27;45275;-62
2022/04/17 07:07:27;;;;;;;;;8.00;8.00;;;;;12.12;41.61;102127.81;5114333;27;45207;-61
2022/04/17 07:09:54;;;;;;;;;9.50;6.00;;;;;12.17;41.67;102126.88;5104003;27;45244;-63
2022/04/17 07:12:20;;;;;;;;;11.00;7.75;;;;;12.29;41.97;102131.09;5103445;27;45486;-63
2022/04/17 07:14:47;;;;;;;;;7.25;5.25;;;;;12.42;42.01;102121.38;5103831;27;45351;-61
2022/04/17 07:17:13;;;;;;;;;10.00;8.75;;;;;12.51;42.06;102120.38;5103781;27;45411;-61
2022/04/17 07:19:38;;;;;;;;;8.00;8.00;;;;;12.64;42.02;102111.53;5104141;27;45286;-61
2022/04/17 07:22:04;;;;;;;;;9.75;5.50;;;;;12.73;41.80;102111.38;5103795;27;46353;-61
2022/04/17 07:24:29;;;;;;;;;8.00;8.00;;;;;12.87;41.45;102117.25;5103517;27;45245;-64
2022/04/17 07:26:56;;;;;;;;;8.00;7.75;;;;;12.97;41.31;102113.59;5102923;27;45460;-64
2022/04/17 07:29:24;;;;;;;;;8.00;8.00;;;;;13.08;40.96;102116.94;5092650;27;45455;-63
2022/04/17 07:31:51;;;;;;;;;9.00;9.00;;;;;13.12;40.91;102116.88;5103602;27;45410;-62
2022/04/17 07:34:18;;;;;;;;;9.25;6.75;;;;;13.15;39.97;102119.44;5097747;27;45337;-62
2022/04/17 07:36:44;;;;;;;;;9.00;7.50;;;;;13.20;40.59;102112.41;5102597;27;45325;-62
2022/04/17 07:39:10;;;;;;;;;10.25;8.50;;;;;13.32;40.33;102112.22;5103470;27;45389;-61
2022/04/17 07:41:35;;;;;;;;;8.75;6.00;;;;;13.42;40.19;102100.75;5094055;27;46179;-62
2022/04/17 07:44:00;;;;;;;;;5.75;5.75;;;;;13.51;39.95;102100.56;5092115;27;45250;-62
2022/04/17 07:46:26;;;;;;;;;7.50;6.75;;;;;13.58;39.24;102101.31;5089947;27;45236;-61
2022/04/17 07:48:51;;;;;;;;;8.00;5.75;;;;;13.62;39.28;102093.41;5103579;27;45530;-61
2022/04/17 07:51:17;;;;;;;;;5.75;5.50;;;;;13.66;39.11;102097.69;5097836;27;46843;-61
2022/04/17 07:53:42;;;;;;;;;10.00;6.75;;;;;13.80;39.21;102093.94;5100450;27;45295;-61
2022/04/17 07:56:08;;;;;;;;;9.50;8.00;;;;;13.92;38.97;102085.88;5101574;27;45273;-61
2022/04/17 07:58:34;;;;;;;;;12.25;8.75;;;;;14.00;38.73;102092.66;5102834;27;45231;-61
2022/04/17 08:01:10;;;;;;;;;10.00;9.50;;;;;14.12;38.54;102088.06;5101570;27;45507;-62
2022/04/17 08:03:37;;;;;;;;;8.00;8.00;;;;;14.13;37.70;102082.81;5093346;27;45364;-62
2022/04/17 08:06:05;;;;;;;;;4.75;4.00;;;;;14.14;38.24;102079.31;5101777;27;45479;-63
2022/04/17 08:08:31;;;;;;;;;7.00;7.00;;;;;14.24;38.10;102085.22;5100677;27;45537;-64
2022/04/17 08:10:57;;;;;;;;;10.00;8.25;;;;;14.29;37.91;102084.22;5101771;27;45475;-65
2022/04/17 08:13:23;;;;;;;;;7.75;6.25;;;;;14.35;38.41;102077.13;5102107;27;45432;-63
2022/04/17 08:15:50;;;;;;;;;9.25;6.50;;;;;14.39;37.93;102078.78;5098048;27;45362;-62
2022/04/17 08:18:15;;;;;;;;;8.25;7.25;;;;;14.46;37.65;102075.19;5100403;27;45301;-62
2022/04/17 08:20:41;;;;;;;;;7.00;5.50;;;;;14.54;38.33;102066.25;5100665;27;45551;-61
2022/04/17 08:23:06;;;;;;;;;10.25;9.50;;;;;14.64;37.56;102069.53;5101045;27;45337;-62
2022/04/17 08:25:35;;;;;;;;;7.50;6.00;;;;;14.67;37.30;102063.38;5101141;27;45353;-64
2022/04/17 08:28:02;;;;;;;;;8.00;5.00;;;;;14.76;36.96;102066.63;5101046;27;45551;-62
2022/04/17 08:30:31;;;;;;;;;5.50;2.00;;;;;14.85;36.88;102069.03;5098431;27;45436;-62
2022/04/17 08:32:58;;;;;;;;;7.75;5.75;;;;;14.95;36.19;102063.56;5100250;27;45565;-63
2022/04/17 08:35:23;;;;;;;;;8.50;6.75;;;;;14.97;36.43;102062.63;5100066;27;45547;-62
2022/04/17 08:37:50;;;;;;;;;7.00;6.50;;;;;15.05;36.53;102054.59;5100827;27;45636;-62
2022/04/17 08:40:16;;;;;;;;;4.25;4.25;;;;;15.12;35.98;102061.38;5099388;27;48092;-62
2022/04/17 08:42:42;;;;;;;;;7.00;4.50;;;;;15.17;35.75;102056.88;5098871;27;45920;-62
2022/04/17 08:45:09;;;;;;;;;8.00;6.00;;;;;15.25;35.61;102048.84;5100512;27;45488;-62
2022/04/17 08:47:36;;;;;;;;;5.25;5.25;;;;;15.29;35.67;102053.97;5099485;27;45494;-62
2022/04/17 08:50:02;;;;;;;;;4.75;4.75;;;;;15.41;35.42;102058.00;5099461;27;45324;-62
2022/04/17 08:52:30;;;;;;;;;8.00;6.25;;;;;15.46;35.88;102051.75;5100127;27;45696;-61
2022/04/17 08:54:59;;;;;;;;;7.00;5.25;;;;;15.58;35.40;102054.94;5100518;27;45417;-61
2022/04/17 08:57:24;;;;;;;;;8.00;4.75;;;;;15.67;35.01;102050.34;5100340;27;45530;-62
2022/04/17 08:59:50;;;;;;;;;6.00;6.00;;;;;15.79;35.45;102051.75;5100560;27;46176;-62
2022/04/17 09:02:17;;;;;;;;;4.75;4.50;;;;;15.76;34.31;102046.59;5097194;27;45235;-63
2022/04/17 09:04:42;;;;;;;;;4.50;2.75;;;;;15.75;34.71;102043.13;5099042;27;45398;-62
2022/04/17 09:07:12;;;;;;;;;6.25;4.50;;;;;15.82;34.77;102043.84;5100402;27;45642;-61
2022/04/17 09:09:53;;;;;;;;;8.00;6.25;;;;;15.94;34.42;102040.84;5099209;27;45541;-61
2022/04/17 09:12:19;;;;;;;;;7.00;6.00;;;;;15.97;33.83;102032.88;5101699;27;45730;-61
2022/04/17 09:14:44;;;;;;;;;5.50;5.50;;;;;16.03;34.03;102037.97;5101374;27;45247;-62
2022/04/17 09:17:10;;;;;;;;;7.00;6.75;;;;;16.06;33.77;102035.25;5101008;27;45214;-62
2022/04/17 09:19:37;;;;;;;;;4.50;4.25;;;;;16.15;33.97;102030.63;5100559;27;46093;-61
2022/04/17 09:22:05;;;;;;;;;8.00;8.00;;;;;16.22;33.65;102032.13;5100995;27;45600;-61
2022/04/17 09:24:35;;;;;;;;;7.50;4.50;;;;;16.34;33.33;102029.16;5096684;27;45567;-64
2022/04/17 09:27:01;;;;;;;;;5.00;5.00;;;;;16.38;33.50;102028.16;5097324;27;45743;-61
2022/04/17 09:29:29;;;;;;;;;5.50;4.75;;;;;16.42;33.06;102029.78;5100658;27;45323;-61
2022/04/17 09:32:01;;;;;;;;;9.75;6.50;;;;;16.49;31.86;102023.44;5115141;27;45774;-60
2022/04/17 09:34:40;;;;;;;;;7.00;5.25;;;;;16.49;32.50;102017.34;5100876;27;45301;-61
2022/04/17 09:37:13;;;;;;;;;4.50;4.50;;;;;16.48;32.00;102026.97;5100810;27;45645;-63
2022/04/17 09:39:40;;;;;;;;;5.00;4.25;;;;;16.48;33.11;102013.84;5099908;27;46489;-62
2022/04/17 09:42:07;;;;;;;;;6.50;4.75;;;;;16.45;31.97;102010.47;5098310;27;45378;-62
2022/04/17 09:44:36;;;;;;;;;5.00;4.25;;;;;16.44;31.94;102017.47;5100034;27;45353;-61
2022/04/17 09:47:09;;;;;;;;;5.25;5.25;;;;;16.48;31.87;102003.34;5099209;27;45425;-60
2022/04/17 09:49:56;;;;;;;;;7.50;4.00;;;;;16.56;31.84;102006.56;5099507;27;45713;-60
2022/04/17 09:52:24;;;;;;;;;5.25;5.00;;;;;16.67;31.90;102003.66;5085152;27;45743;-61
2022/04/17 09:54:50;;;;;;;;;4.75;3.50;;;;;16.78;31.93;101992.78;5100570;27;45439;-61
2022/04/17 09:57:38;;;;;;;;;5.50;4.75;;;;;16.83;31.22;101988.25;5092538;27;45358;-62
2022/04/17 10:00:10;;;;;;;;;5.25;3.00;;;;;16.90;31.53;101984.50;5089295;27;46130;-62
2022/04/17 10:02:40;;;;;;;;;6.25;4.50;;;;;17.01;30.85;101980.59;5100978;27;45271;-64
2022/04/17 10:05:13;;;;;;;;;4.25;4.25;;;;;17.01;30.53;101974.47;5100379;27;45405;-63
2022/04/17 10:07:41;;;;;;;;;8.00;5.00;;;;;16.99;30.95;101979.78;5100190;27;45279;-61
2022/04/17 10:10:07;;;;;;;;;5.25;4.25;;;;;17.00;30.17;101972.75;5100846;27;45499;-62
2022/04/17 10:12:34;;;;;;;;;5.00;5.00;;;;;17.05;30.14;101970.84;5100594;27;45306;-63
2022/04/17 10:15:07;;;;;;;;;3.50;3.50;;;;;17.17;30.23;101962.53;5100971;27;45378;-62
2022/04/17 10:17:34;;;;;;;;;3.75;3.00;;;;;17.27;29.92;101949.94;5113310;27;45341;-61
2022/04/17 10:20:06;;;;;;;;;5.00;5.00;;;;;17.38;29.83;101953.03;5100012;27;45376;-62
2022/04/17 10:22:36;;;;;;;;;4.25;3.50;;;;;17.49;29.69;101961.38;5087496;27;45241;-61
2022/04/17 10:25:06;;;;;;;;;6.50;6.00;;;;;17.61;29.83;101949.53;5099187;27;45330;-61
2022/04/17 10:27:45;;;;;;;;;6.00;4.50;;;;;17.72;29.22;101950.03;5092476;27;45819;-61
2022/04/17 10:30:20;;;;;;;;;4.00;4.00;;;;;17.81;28.90;101940.91;5096004;27;45681;-61
2022/04/17 10:33:20;;;;;;;;;6.75;4.00;;;;;17.92;29.07;101936.13;5109509;27;45874;-61
2022/04/17 10:36:21;;;;;;;;;4.75;4.50;;;;;18.11;29.02;101931.84;5086843;27;45302;-61
2022/04/17 10:38:59;;;;;;;;;5.75;4.50;;;;;18.26;27.97;101945.31;5099989;27;45391;-61
2022/04/17 10:41:25;;;;;;;;;8.00;6.50;;;;;18.33;28.61;101933.63;5097777;27;46199;-60
2022/04/17 10:43:50;;;;;;;;;6.25;4.75;;;;;18.37;27.48;101930.78;5090553;27;45509;-61
2022/04/17 10:46:16;;;;;;;;;3.00;3.00;;;;;18.38;27.51;101919.34;5096061;27;45390;-60
2022/04/17 10:48:47;;;;;;;;;5.00;4.00;;;;;18.43;27.86;101912.13;5098682;27;45382;-60
2022/04/17 10:51:18;;;;;;;;;1.25;1.00;;;;;18.52;28.53;101905.63;5097181;27;45504;-60
2022/04/17 10:53:50;;;;;;;;;8.50;6.75;;;;;18.55;27.57;101910.75;5096495;27;45252;-64
2022/04/17 10:56:17;;;;;;;;;4.50;4.50;;;;;18.55;27.86;101906.34;5100520;27;45460;-65
2022/04/17 10:58:54;;;;;;;;;6.00;3.50;;;;;18.59;26.79;101904.41;5100344;27;45211;-64
2022/04/17 11:01:52;;;;;;;;;5.00;4.50;;;;;18.62;26.85;101901.69;5096212;27;47157;-63
2022/04/17 11:04:21;;;;;;;;;7.50;5.00;;;;;18.61;26.30;101896.47;5012373;27;45856;-64
2022/04/17 11:06:52;;;;;;;;;5.25;4.75;;;;;18.63;27.10;101878.88;5099431;27;45305;-66
2022/04/17 11:09:22;;;;;;;;;4.75;4.00;;;;;18.74;26.82;101882.75;5098426;27;45470;-63
2022/04/17 11:11:47;;;;;;;;;5.75;4.25;;;;;18.86;26.56;101870.84;5099919;27;45429;-63
2022/04/17 11:14:19;;;;;;;;;7.25;5.00;;;;;18.95;26.44;101873.03;5099158;27;45306;-63
2022/04/17 11:16:56;;;;;;;;;5.75;5.25;;;;;18.99;26.96;101874.63;5100086;27;45210;-65
2022/04/17 11:19:26;;;;;;;;;4.50;4.50;;;;;19.00;25.27;101855.25;5086509;27;45303;-62
2022/04/17 11:21:53;;;;;;;;;8.00;4.75;;;;;19.06;26.22;101855.00;5099858;27;45507;-65
2022/04/17 11:24:21;;;;;;;;;5.00;4.50;;;;;19.15;26.47;101864.25;5099761;27;45315;-65
2022/04/17 11:26:55;;;;;;;;;5.75;4.75;;;;;19.28;25.30;101861.91;5099577;27;45586;-64
2022/04/17 11:29:43;;;;;;;;;4.00;4.00;;;;;19.30;25.49;101860.06;5088007;27;45176;-63
2022/04/17 11:32:18;;;;;;;;;6.00;4.00;;;;;19.36;25.42;101847.44;5099397;27;45742;-66
2022/04/17 11:34:44;;;;;;;;;4.50;3.25;;;;;19.47;25.97;101849.59;5099321;27;45886;-65
2022/04/17 11:37:10;;;;;;;;;4.00;4.00;;;;;19.58;25.49;101839.41;5087753;27;45789;-64
2022/04/17 11:39:36;;;;;;;;;4.75;4.75;;;;;19.65;25.61;101840.84;5094465;27;45339;-62
2022/04/17 11:42:03;;;;;;;;;4.25;4.25;;;;;19.71;25.36;101832.63;5098557;27;45441;-62